Time;durP1;ratioP1;P1;durP2;ratioP2;P2;SDS_P1;SDS_P2;PMS_P1;PMS_P2;Temp;Humidity;BMP_temperature;BMP_pressure;BME280_temperature;BME280_humidity;BME280_pressure;Samples;Min_cycle;Max_cycle;Signal;HPM_P1;HPM_P2
2022/09/08 00:01:39;;;;;;;7.25;1.90;;;17.70;99.90;;;;;;5002233;28;20038;-83
2022/09/08 00:04:05;;;;;;;8.38;1.70;;;17.50;99.90;;;;;;5001438;28;20026;-83
2022/09/08 00:06:32;;;;;;;7.38;2.10;;;17.40;99.90;;;;;;5000837;28;20049;-83
2022/09/08 00:08:59;;;;;;;8.77;2.20;;;17.20;99.90;;;;;;4972698;28;20044;-83
2022/09/08 00:11:28;;;;;;;3.92;1.90;;;17.10;99.90;;;;;;4962381;28;20138;-83
2022/09/08 00:13:58;;;;;;;9.20;2.22;;;17.00;99.90;;;;;;4962468;29;20631;-82
2022/09/08 00:16:24;;;;;;;8.02;2.45;;;17.10;99.90;;;;;;4961476;28;20035;-82
2022/09/08 00:18:50;;;;;;;5.70;2.38;;;16.90;99.90;;;;;;4962410;29;20197;-84
2022/09/08 00:21:17;;;;;;;11.85;2.78;;;16.90;99.90;;;;;;4961521;29;20501;-83
2022/09/08 00:23:43;;;;;;;9.38;2.20;;;16.90;99.90;;;;;;4962360;28;20086;-83
2022/09/08 00:26:09;;;;;;;8.68;2.65;;;16.90;99.90;;;;;;4958684;29;20031;-83
2022/09/08 00:28:35;;;;;;;7.20;2.30;;;16.90;99.90;;;;;;4964696;29;20055;-83
2022/09/08 00:31:01;;;;;;;9.68;2.75;;;16.90;99.90;;;;;;4961864;29;20533;-83
2022/09/08 00:33:29;;;;;;;7.78;2.47;;;16.90;99.90;;;;;;4961958;29;20122;-84
2022/09/08 00:35:54;;;;;;;7.63;2.50;;;16.90;99.90;;;;;;4961436;29;20027;-84
2022/09/08 00:38:21;;;;;;;6.40;2.25;;;16.90;99.90;;;;;;4961485;28;20102;-84
2022/09/08 00:40:49;;;;;;;6.32;2.80;;;16.90;99.90;;;;;;4961271;29;20086;-83
2022/09/08 00:43:38;;;;;;;7.13;2.78;;;17.00;99.90;;;;;;4960956;28;20038;-83
2022/09/08 00:46:23;;;;;;;6.43;2.63;;;16.90;99.90;;;;;;4961021;29;20019;-83
2022/09/08 00:49:01;;;;;;;9.45;3.30;;;16.90;99.90;;;;;;4962403;28;20490;-83
2022/09/08 00:51:27;;;;;;;8.95;2.97;;;16.80;99.90;;;;;;4961225;29;20031;-83
2022/09/08 00:53:54;;;;;;;10.07;2.90;;;16.80;99.90;;;;;;4961044;29;20151;-83
2022/09/08 00:56:22;;;;;;;6.47;3.05;;;16.80;99.90;;;;;;4962560;28;20031;-84
2022/09/08 00:58:49;;;;;;;10.85;3.72;;;16.80;99.90;;;;;;4961373;29;20090;-84
2022/09/08 01:01:15;;;;;;;10.43;3.40;;;16.80;99.90;;;;;;4959863;28;20087;-84
2022/09/08 01:03:42;;;;;;;9.75;3.20;;;16.80;99.90;;;;;;4960303;29;20027;-84
2022/09/08 01:06:20;;;;;;;9.82;3.78;;;16.80;99.90;;;;;;4960580;29;20030;-83
2022/09/08 01:14:55;;;;;;;10.20;3.67;;;16.80;99.90;;;;;;4979882;28;20062;-83
2022/09/08 01:17:24;;;;;;;7.82;3.90;;;16.80;99.90;;;;;;4979166;28;20044;-83
2022/09/08 01:19:51;;;;;;;8.10;3.88;;;16.80;99.90;;;;;;4979488;28;20491;-83
2022/09/08 01:22:39;;;;;;;9.00;4.10;;;16.80;99.90;;;;;;4978953;28;20102;-83
2022/09/08 01:25:27;;;;;;;9.35;3.97;;;16.80;99.90;;;;;;4977729;28;20090;-83
2022/09/08 01:28:07;;;;;;;10.80;3.92;;;16.80;99.90;;;;;;4978422;28;20451;-83
2022/09/08 01:30:34;;;;;;;7.75;3.90;;;16.80;99.90;;;;;;4977970;28;20065;-83
2022/09/08 01:33:01;;;;;;;8.80;3.67;;;16.80;99.90;;;;;;4982167;28;20082;-84
2022/09/08 01:35:30;;;;;;;10.07;4.13;;;16.80;99.90;;;;;;4981302;28;20027;-83
2022/09/08 01:37:56;;;;;;;10.07;4.32;;;16.80;99.90;;;;;;4981130;28;20045;-83
2022/09/08 01:40:22;;;;;;;12.15;5.15;;;16.80;99.90;;;;;;4979759;28;20031;-83
2022/09/08 01:42:47;;;;;;;11.90;5.45;;;16.80;99.90;;;;;;4979235;28;20037;-84
2022/09/08 01:45:13;;;;;;;9.65;4.53;;;16.80;99.90;;;;;;4978762;28;20038;-84
2022/09/08 01:47:39;;;;;;;14.05;5.32;;;16.80;99.90;;;;;;4979424;28;20031;-84
2022/09/08 01:50:04;;;;;;;9.30;4.82;;;16.80;99.90;;;;;;4977660;28;20023;-84
2022/09/08 01:52:30;;;;;;;12.50;5.50;;;16.80;99.90;;;;;;4980047;28;20031;-84
2022/09/08 01:54:56;;;;;;;10.05;5.93;;;16.80;99.90;;;;;;4978622;28;20031;-84
2022/09/08 01:57:21;;;;;;;14.90;6.25;;;16.80;99.90;;;;;;4995981;28;20038;-84
2022/09/08 01:59:47;;;;;;;10.50;5.65;;;16.80;99.90;;;;;;4981335;28;20027;-84
2022/09/08 02:02:13;;;;;;;16.02;6.00;;;16.80;99.90;;;;;;4980675;28;20256;-83
2022/09/08 02:04:38;;;;;;;13.40;6.63;;;16.80;99.90;;;;;;4980685;28;20018;-83
2022/09/08 02:07:04;;;;;;;12.77;6.88;;;16.70;99.90;;;;;;4981086;28;20042;-83
2022/09/08 02:09:31;;;;;;;13.20;7.18;;;16.70;99.90;;;;;;4966940;28;20047;-83
2022/09/08 02:11:56;;;;;;;14.10;6.50;;;16.70;99.90;;;;;;4960425;28;20035;-83
2022/09/08 02:14:22;;;;;;;11.27;6.38;;;16.70;99.90;;;;;;4959869;29;20472;-83
2022/09/08 02:16:48;;;;;;;14.25;7.88;;;16.70;99.90;;;;;;4944580;29;20507;-82
2022/09/08 02:19:13;;;;;;;12.90;7.57;;;16.70;99.90;;;;;;4959932;29;20130;-83
2022/09/08 02:21:39;;;;;;;14.20;8.18;;;16.70;99.90;;;;;;4959428;28;20141;-83
2022/09/08 02:24:05;;;;;;;15.27;7.13;;;16.70;99.90;;;;;;4959063;29;20034;-83
2022/09/08 02:26:31;;;;;;;15.73;8.30;;;16.70;99.90;;;;;;4959629;28;20395;-83
2022/09/08 02:28:57;;;;;;;18.30;8.02;;;16.70;99.90;;;;;;4959076;29;20023;-83
2022/09/08 02:31:25;;;;;;;21.80;8.77;;;16.70;99.90;;;;;;4959501;29;20035;-82
2022/09/08 02:33:52;;;;;;;15.18;7.70;;;16.70;99.90;;;;;;4960548;29;20035;-82
2022/09/08 02:36:18;;;;;;;16.73;9.07;;;16.70;99.90;;;;;;4961166;28;20419;-82
2022/09/08 02:38:49;;;;;;;13.55;8.43;;;16.60;99.90;;;;;;4959466;28;20035;-82
2022/09/08 02:41:16;;;;;;;13.65;8.75;;;16.70;99.90;;;;;;4958993;29;20118;-83
2022/09/08 02:43:41;;;;;;;18.20;8.65;;;16.70;99.90;;;;;;4961103;28;20031;-83
2022/09/08 02:46:09;;;;;;;16.83;8.52;;;16.60;99.90;;;;;;4962033;29;20027;-85
2022/09/08 02:48:35;;;;;;;12.25;7.78;;;16.70;99.90;;;;;;4959409;28;20023;-83
2022/09/08 02:51:03;;;;;;;11.38;7.32;;;16.70;99.90;;;;;;4959073;29;20061;-83
2022/09/08 02:53:30;;;;;;;12.65;8.25;;;16.70;99.90;;;;;;4959521;28;20049;-83
2022/09/08 02:55:57;;;;;;;15.43;8.73;;;16.70;99.90;;;;;;4959261;29;20600;-83
2022/09/08 02:58:22;;;;;;;17.88;9.23;;;16.70;99.90;;;;;;4957306;29;20047;-83
2022/09/08 03:00:48;;;;;;;15.98;8.25;;;16.70;99.90;;;;;;4956279;29;20028;-83
2022/09/08 03:03:15;;;;;;;14.57;8.73;;;16.70;99.90;;;;;;4957095;29;20055;-83
2022/09/08 03:05:41;;;;;;;13.38;7.78;;;16.70;99.90;;;;;;4958604;29;20047;-83
2022/09/08 03:08:08;;;;;;;15.43;8.00;;;16.70;99.90;;;;;;4962886;28;20027;-84
2022/09/08 03:10:35;;;;;;;15.02;8.60;;;16.70;99.90;;;;;;4981986;28;20026;-83
2022/09/08 03:13:02;;;;;;;16.30;8.60;;;16.60;99.90;;;;;;4998672;28;20101;-83
2022/09/08 03:15:29;;;;;;;13.30;8.23;;;16.70;99.90;;;;;;4980701;28;20558;-83
2022/09/08 03:17:55;;;;;;;15.05;8.13;;;16.60;99.90;;;;;;4999177;28;20070;-84
2022/09/08 03:20:22;;;;;;;13.80;8.43;;;16.60;99.90;;;;;;4999235;28;20034;-84
2022/09/08 03:22:48;;;;;;;11.63;7.22;;;16.60;99.90;;;;;;4998247;28;20076;-84
2022/09/08 03:25:14;;;;;;;12.07;8.30;;;16.60;99.90;;;;;;4998061;28;20030;-84
2022/09/08 03:27:39;;;;;;;15.52;8.00;;;16.60;99.90;;;;;;4996896;28;20026;-84
2022/09/08 03:30:10;;;;;;;14.77;7.85;;;16.60;99.90;;;;;;4980771;28;20044;-84
2022/09/08 03:32:38;;;;;;;11.10;7.63;;;16.50;99.90;;;;;;4996962;28;20026;-83
2022/09/08 03:35:07;;;;;;;14.07;8.60;;;16.50;99.90;;;;;;4980589;28;20031;-83
2022/09/08 03:37:34;;;;;;;14.30;8.45;;;16.50;99.90;;;;;;4980530;28;20031;-84
2022/09/08 03:40:02;;;;;;;13.55;7.80;;;16.40;99.90;;;;;;4981114;28;20023;-82
2022/09/08 03:42:33;;;;;;;11.65;8.35;;;16.40;99.90;;;;;;4996475;28;20076;-83
2022/09/08 03:44:59;;;;;;;19.92;8.30;;;16.40;99.90;;;;;;4979893;28;20023;-83
2022/09/08 03:47:25;;;;;;;13.10;7.88;;;16.40;99.90;;;;;;4996342;28;20498;-84
2022/09/08 03:49:51;;;;;;;14.48;8.02;;;16.40;99.90;;;;;;4980169;28;20034;-84
2022/09/08 03:52:16;;;;;;;12.88;7.90;;;16.40;99.90;;;;;;4995909;28;20031;-84
2022/09/08 03:54:48;;;;;;;14.00;7.55;;;16.30;99.90;;;;;;4979731;28;20478;-83
2022/09/08 03:57:16;;;;;;;11.40;7.45;;;16.20;99.90;;;;;;4995214;28;20069;-83
2022/09/08 03:59:42;;;;;;;16.45;8.98;;;16.20;99.90;;;;;;4977936;28;20034;-83
2022/09/08 04:02:09;;;;;;;13.68;7.85;;;16.20;99.90;;;;;;4961916;28;20035;-83
2022/09/08 04:04:35;;;;;;;14.57;7.63;;;16.10;99.90;;;;;;4978195;28;20062;-83
2022/09/08 04:07:01;;;;;;;15.93;7.57;;;16.10;99.90;;;;;;4994332;28;20031;-83
2022/09/08 04:09:27;;;;;;;19.73;8.65;;;16.00;99.90;;;;;;4978423;28;20038;-83
2022/09/08 04:11:53;;;;;;;14.10;7.43;;;16.00;99.90;;;;;;4995188;28;20038;-84
2022/09/08 04:14:18;;;;;;;13.68;6.88;;;16.00;99.90;;;;;;4982156;28;20033;-83
2022/09/08 04:16:44;;;;;;;15.18;6.63;;;16.00;99.90;;;;;;4998527;28;20030;-83
2022/09/08 04:19:11;;;;;;;15.57;7.05;;;15.90;99.90;;;;;;4982640;28;20030;-83
2022/09/08 04:21:36;;;;;;;16.52;7.47;;;15.90;99.90;;;;;;4997846;28;20406;-83
2022/09/08 04:24:03;;;;;;;15.60;6.72;;;15.90;99.90;;;;;;4981610;28;20026;-83
2022/09/08 04:26:29;;;;;;;11.63;6.93;;;15.90;99.90;;;;;;4997848;28;20033;-83
2022/09/08 04:28:54;;;;;;;14.48;7.13;;;15.80;99.90;;;;;;4999593;28;20035;-83
2022/09/08 04:31:20;;;;;;;17.77;7.05;;;15.90;99.90;;;;;;4982755;28;20034;-83
2022/09/08 04:33:46;;;;;;;12.48;6.85;;;15.80;99.90;;;;;;4983296;28;20030;-83
2022/09/08 04:36:19;;;;;;;14.77;7.25;;;15.80;99.90;;;;;;5000284;28;20031;-83
2022/09/08 04:38:45;;;;;;;11.00;6.30;;;15.80;99.90;;;;;;5000104;28;20157;-83
2022/09/08 04:41:13;;;;;;;10.63;6.70;;;15.70;99.90;;;;;;4982172;28;20072;-83
2022/09/08 04:43:40;;;;;;;14.18;7.00;;;15.70;99.90;;;;;;4982675;28;20484;-83
2022/09/08 04:46:08;;;;;;;15.32;6.90;;;15.70;99.90;;;;;;5000237;28;20029;-84
2022/09/08 04:48:35;;;;;;;13.10;6.93;;;15.70;99.90;;;;;;4998791;28;20486;-83
2022/09/08 04:51:01;;;;;;;13.75;7.10;;;15.70;99.90;;;;;;4981448;28;20099;-83
2022/09/08 04:53:29;;;;;;;11.07;6.28;;;15.70;99.90;;;;;;4997934;28;20065;-84
2022/09/08 04:55:54;;;;;;;12.07;6.57;;;15.70;99.90;;;;;;4980895;28;20022;-83
2022/09/08 04:58:21;;;;;;;12.13;7.18;;;15.70;99.90;;;;;;4981463;28;20034;-82
2022/09/08 05:00:48;;;;;;;14.00;7.15;;;15.70;99.90;;;;;;4999809;28;20033;-82
2022/09/08 05:03:15;;;;;;;12.45;7.22;;;15.70;99.90;;;;;;4998490;28;20038;-82
2022/09/08 05:05:42;;;;;;;9.65;6.60;;;15.70;99.90;;;;;;4981785;28;20045;-82
2022/09/08 05:08:07;;;;;;;13.75;6.90;;;15.70;99.90;;;;;;4997447;28;20042;-83
2022/09/08 05:10:34;;;;;;;14.48;7.68;;;15.70;99.90;;;;;;4998565;28;20026;-83
2022/09/08 05:13:00;;;;;;;16.55;7.60;;;15.60;99.90;;;;;;4999138;28;20026;-83
2022/09/08 05:15:25;;;;;;;14.93;7.93;;;15.70;99.90;;;;;;4997292;28;20026;-82
2022/09/08 05:17:52;;;;;;;16.45;7.65;;;15.70;99.90;;;;;;5003101;28;20038;-83
2022/09/08 05:20:18;;;;;;;15.98;7.65;;;15.60;99.90;;;;;;4983770;28;20026;-83
2022/09/08 05:22:45;;;;;;;13.93;7.60;;;15.70;99.90;;;;;;5003522;28;20035;-84
2022/09/08 05:25:10;;;;;;;13.82;8.13;;;15.80;99.90;;;;;;5003791;28;20049;-84
2022/09/08 05:27:36;;;;;;;13.98;8.50;;;15.80;99.90;;;;;;5003630;28;20023;-84
2022/09/08 05:30:02;;;;;;;16.50;8.10;;;15.80;99.90;;;;;;4983039;28;20386;-83
2022/09/08 05:32:27;;;;;;;14.90;7.72;;;15.80;99.90;;;;;;4999034;28;20026;-82
2022/09/08 05:34:53;;;;;;;14.73;9.05;;;15.90;99.90;;;;;;5001017;28;20036;-83
2022/09/08 05:37:19;;;;;;;15.63;8.43;;;15.90;99.90;;;;;;4998384;28;20038;-83
2022/09/08 05:39:46;;;;;;;14.45;9.23;;;15.90;99.90;;;;;;4984702;28;20026;-83
2022/09/08 05:42:12;;;;;;;11.65;8.90;;;16.00;99.90;;;;;;4998946;28;20026;-83
2022/09/08 05:44:38;;;;;;;12.93;9.35;;;16.00;99.90;;;;;;4984366;28;20506;-82
2022/09/08 05:47:04;;;;;;;15.80;9.20;;;16.00;99.90;;;;;;4999344;28;20061;-83
2022/09/08 05:49:29;;;;;;;10.52;8.65;;;16.10;99.90;;;;;;4987847;28;20054;-85
2022/09/08 05:51:56;;;;;;;11.30;8.05;;;16.20;99.90;;;;;;5005763;28;20022;-83
2022/09/08 05:54:22;;;;;;;15.85;8.65;;;16.20;99.90;;;;;;4986572;28;20438;-83
2022/09/08 05:56:48;;;;;;;13.15;8.68;;;16.10;99.90;;;;;;5002762;28;20035;-83
2022/09/08 05:59:13;;;;;;;13.23;8.73;;;16.20;99.90;;;;;;4983800;28;20034;-83
2022/09/08 06:01:39;;;;;;;14.52;8.13;;;16.20;99.90;;;;;;4991286;28;20030;-83
2022/09/08 06:04:05;;;;;;;12.05;8.30;;;16.30;99.90;;;;;;4966714;28;20823;-81
2022/09/08 06:06:32;;;;;;;11.88;7.35;;;16.20;99.90;;;;;;4973550;28;20553;-83
2022/09/08 06:09:01;;;;;;;12.05;7.18;;;16.40;99.90;;;;;;4969016;28;20173;-84
2022/09/08 06:11:29;;;;;;;16.33;7.90;;;16.40;99.90;;;;;;4969358;28;20113;-84
2022/09/08 06:13:55;;;;;;;12.95;7.82;;;16.30;99.90;;;;;;4988710;28;20041;-83
2022/09/08 06:16:21;;;;;;;13.07;7.70;;;16.30;99.90;;;;;;4985787;28;20034;-85
2022/09/08 06:18:47;;;;;;;12.77;7.70;;;16.30;99.90;;;;;;4967497;28;20039;-83
2022/09/08 06:21:17;;;;;;;14.30;7.32;;;16.30;99.90;;;;;;4969934;28;20030;-85
2022/09/08 06:23:46;;;;;;;13.93;7.30;;;16.30;99.90;;;;;;4967938;28;20038;-83
2022/09/08 06:26:15;;;;;;;11.00;7.03;;;16.30;99.90;;;;;;4991165;28;20027;-85
2022/09/08 06:28:53;;;;;;;11.40;6.90;;;16.30;99.90;;;;;;4970172;28;20045;-85
2022/09/08 06:31:26;;;;;;;12.13;6.63;;;16.40;99.90;;;;;;4983454;28;20117;-86
2022/09/08 06:33:53;;;;;;;10.73;6.43;;;16.50;99.90;;;;;;4967773;28;20034;-86
2022/09/08 06:36:40;;;;;;;12.82;6.68;;;16.60;99.90;;;;;;4967673;28;20045;-83
2022/09/08 06:39:12;;;;;;;14.52;5.90;;;16.60;99.90;;;;;;4967957;28;20053;-83
2022/09/08 06:41:49;;;;;;;10.75;6.57;;;16.60;99.90;;;;;;4966156;28;20038;-83
2022/09/08 06:44:22;;;;;;;9.15;5.30;;;16.70;99.90;;;;;;4968796;28;20058;-83
2022/09/08 06:46:47;;;;;;;;;;;16.60;99.90;;;;;;4985215;28;20022;-82
2022/09/08 06:49:13;;;;;;;11.35;5.38;;;16.60;99.90;;;;;;4965068;28;19976;-83
2022/09/08 06:51:52;;;;;;;12.38;5.25;;;16.60;99.90;;;;;;4968181;28;20084;-84
2022/09/08 06:54:49;;;;;;;9.35;4.88;;;16.60;99.90;;;;;;4987827;28;20030;-80
2022/09/08 06:57:31;;;;;;;11.27;4.90;;;16.60;99.90;;;;;;4962989;28;20058;-80
2022/09/08 07:00:20;;;;;;;9.50;4.63;;;16.70;99.90;;;;;;4968449;28;20552;-80
2022/09/08 07:02:58;;;;;;;8.45;4.68;;;16.90;99.90;;;;;;4984105;28;20065;-80
2022/09/08 07:05:36;;;;;;;7.68;3.78;;;17.10;99.90;;;;;;4971186;28;20061;-81
2022/09/08 07:08:25;;;;;;;7.70;3.58;;;17.30;99.90;;;;;;4967706;28;20069;-81
2022/09/08 07:10:57;;;;;;;7.60;3.42;;;17.50;99.90;;;;;;4962547;28;20046;-80
2022/09/08 07:13:55;;;;;;;10.40;3.22;;;17.60;99.90;;;;;;4968455;28;20244;-81
2022/09/08 07:16:49;;;;;;;8.20;3.28;;;17.80;99.90;;;;;;4970755;28;20046;-83
2022/09/08 07:19:25;;;;;;;8.23;3.05;;;17.90;99.90;;;;;;4962776;28;20030;-83
2022/09/08 07:21:55;;;;;;;6.45;2.30;;;18.10;99.90;;;;;;4983921;28;20187;-83
2022/09/08 07:24:27;;;;;;;9.80;2.47;;;18.00;99.90;;;;;;4963144;28;20487;-83
2022/09/08 07:26:59;;;;;;;8.05;2.70;;;18.00;99.90;;;;;;4961733;28;20065;-83
2022/09/08 07:29:33;;;;;;;7.85;2.45;;;17.80;99.90;;;;;;4985538;28;20034;-82
2022/09/08 07:32:00;;;;;;;14.13;2.85;;;17.50;99.90;;;;;;4960391;28;20060;-82
2022/09/08 07:34:28;;;;;;;7.03;2.45;;;17.50;99.90;;;;;;4961812;28;20043;-83
2022/09/08 07:37:08;;;;;;;7.55;2.45;;;17.50;99.90;;;;;;4985138;28;20042;-82
2022/09/08 07:39:46;;;;;;;7.30;2.38;;;17.70;99.90;;;;;;4972285;28;20038;-83
2022/09/08 07:42:14;;;;;;;9.35;2.92;;;17.50;99.90;;;;;;4972729;28;20025;-83
2022/09/08 07:44:41;;;;;;;9.57;2.80;;;17.50;99.90;;;;;;4993827;28;20050;-83
2022/09/08 07:47:31;;;;;;;10.43;2.35;;;17.70;99.90;;;;;;4971939;28;20061;-83
2022/09/08 07:50:15;;;;;;;11.38;2.67;;;17.60;99.90;;;;;;4967838;28;20448;-81
2022/09/08 07:52:58;;;;;;;7.95;2.40;;;17.70;99.90;;;;;;4987769;28;20091;-82
2022/09/08 07:55:43;;;;;;;8.30;2.58;;;17.90;99.90;;;;;;4970851;28;20143;-81
2022/09/08 07:58:18;;;;;;;7.13;2.58;;;17.90;99.90;;;;;;4969394;28;20033;-82
2022/09/08 08:01:16;;;;;;;10.10;2.50;;;18.00;99.90;;;;;;4971914;28;20034;-82
2022/09/08 08:03:50;;;;;;;10.05;2.80;;;17.90;99.90;;;;;;4985744;28;20085;-82
2022/09/08 08:06:44;;;;;;;9.63;2.42;;;17.90;99.90;;;;;;4968078;28;20073;-82
2022/09/08 08:09:24;;;;;;;5.00;2.08;;;18.00;99.90;;;;;;4985413;28;21065;-82
2022/09/08 08:12:09;;;;;;;13.35;2.50;;;18.10;99.90;;;;;;4967868;28;20042;-90
2022/09/08 08:14:43;;;;;;;7.10;2.00;;;18.50;99.90;;;;;;4984055;28;20034;-85
2022/09/08 08:17:43;;;;;;;10.30;2.03;;;19.00;99.90;;;;;;4964849;28;20031;-84
2022/09/08 08:20:47;;;;;;;6.35;1.80;;;18.80;99.90;;;;;;4970484;28;20038;-83
2022/09/08 08:23:22;;;;;;;7.85;1.80;;;18.60;99.90;;;;;;4991101;28;20026;-86
2022/09/08 08:26:02;;;;;;;7.72;2.17;;;18.60;99.90;;;;;;4969328;28;20065;-84
2022/09/08 08:28:34;;;;;;;9.10;2.13;;;18.70;99.90;;;;;;4963533;28;20034;-87
2022/09/08 08:31:29;;;;;;;5.07;1.73;;;18.40;99.90;;;;;;4965951;28;20029;-85
2022/09/08 08:34:10;;;;;;;5.13;1.92;;;18.80;99.90;;;;;;4955998;28;20050;-82
2022/09/08 08:36:41;;;;;;;6.40;1.83;;;18.80;99.90;;;;;;4981582;28;20157;-81
2022/09/08 08:39:20;;;;;;;6.15;1.90;;;18.70;99.90;;;;;;4982781;28;20466;-81
2022/09/08 08:41:46;;;;;;;8.95;1.90;;;18.60;99.90;;;;;;4968119;28;20037;-81
2022/09/08 08:44:14;;;;;;;6.25;1.85;;;18.70;99.90;;;;;;4969676;28;20019;-81
2022/09/08 08:46:45;;;;;;;8.88;1.58;;;18.60;99.90;;;;;;4969257;28;20030;-81
2022/09/08 08:49:44;;;;;;;9.32;1.90;;;18.80;99.90;;;;;;4966195;28;20556;-82
2022/09/08 08:52:45;;;;;;;2.88;1.50;;;18.90;99.90;;;;;;4963547;28;20550;-83
2022/09/08 08:55:25;;;;;;;9.90;1.63;;;19.00;99.90;;;;;;4969062;28;20450;-83
2022/09/08 08:58:28;;;;;;;7.18;1.63;;;19.30;99.90;;;;;;4966072;28;20116;-83
2022/09/08 09:00:53;;;;;;;;;;;19.90;99.90;;;;;;4966510;28;20030;-83
2022/09/08 09:03:50;;;;;;;4.90;1.40;;;19.90;99.90;;;;;;4969907;28;20453;-83
2022/09/08 09:06:31;;;;;;;5.53;1.35;;;19.80;99.90;;;;;;4987840;28;20506;-82
2022/09/08 09:09:15;;;;;;;9.73;1.67;;;19.80;99.90;;;;;;4968944;28;20056;-82
2022/09/08 09:12:07;;;;;;;5.80;1.30;;;19.50;99.90;;;;;;4984928;28;20176;-82
2022/09/08 09:14:54;;;;;;;5.63;1.30;;;19.70;99.90;;;;;;4967384;28;20038;-83
2022/09/08 09:17:42;;;;;;;7.20;1.38;;;20.00;99.90;;;;;;4977858;28;20408;-83
2022/09/08 09:20:41;;;;;;;10.68;1.50;;;19.60;99.90;;;;;;4985719;28;20490;-83
2022/09/08 09:23:24;;;;;;;4.50;1.00;;;20.20;99.90;;;;;;4985498;28;20034;-83
2022/09/08 09:26:20;;;;;;;6.75;1.52;;;21.00;99.90;;;;;;4981639;28;20482;-82
2022/09/08 09:29:09;;;;;;;8.25;1.55;;;21.80;99.90;;;;;;4981364;28;20113;-82
2022/09/08 09:31:47;;;;;;;6.78;1.40;;;22.10;99.90;;;;;;4981841;28;20783;-83
2022/09/08 09:34:50;;;;;;;9.13;1.45;;;22.10;99.90;;;;;;4982448;28;20030;-84
2022/09/08 09:37:37;;;;;;;7.18;1.40;;;22.50;99.90;;;;;;4969385;28;20059;-83
2022/09/08 09:40:08;;;;;;;7.57;1.75;;;21.90;99.90;;;;;;4979477;28;20172;-81
2022/09/08 09:42:50;;;;;;;8.23;1.45;;;21.00;99.90;;;;;;4963339;28;20064;-81
2022/09/08 09:45:31;;;;;;;8.00;1.70;;;20.50;99.90;;;;;;4961798;28;20148;-81
2022/09/08 09:48:09;;;;;;;10.75;1.55;;;20.30;99.90;;;;;;4986559;28;20037;-82
2022/09/08 09:50:54;;;;;;;7.45;1.67;;;20.10;99.90;;;;;;4983062;28;20040;-82
2022/09/08 09:53:25;;;;;;;7.85;1.42;;;19.90;99.90;;;;;;4964969;28;20482;-83
2022/09/08 09:56:22;;;;;;;7.55;1.50;;;19.50;99.90;;;;;;4978512;28;20089;-83
2022/09/08 09:59:17;;;;;;;6.25;1.80;;;19.80;99.90;;;;;;4975914;28;20041;-82
2022/09/08 10:02:08;;;;;;;9.80;1.75;;;20.00;99.90;;;;;;4964622;28;20042;-82
2022/09/08 10:04:45;;;;;;;8.57;1.65;;;20.00;99.90;;;;;;4961793;28;20030;-82
2022/09/08 10:07:39;;;;;;;6.90;1.58;;;20.30;99.90;;;;;;4982547;28;20027;-87
2022/09/08 10:10:42;;;;;;;9.02;1.50;;;20.80;99.90;;;;;;4938954;28;20051;-83
2022/09/08 10:13:30;;;;;;;8.63;1.50;;;20.20;99.90;;;;;;4938854;28;20516;-83
2022/09/08 10:16:16;;;;;;;9.70;1.75;;;21.00;99.90;;;;;;4941259;28;20032;-83
2022/09/08 10:18:57;;;;;;;7.45;1.75;;;22.10;99.90;;;;;;4953412;28;20035;-83
2022/09/08 10:22:00;;;;;;;7.65;1.52;;;22.40;99.90;;;;;;4945377;28;20058;-84
2022/09/08 10:24:31;;;;;;;;;;;22.00;99.90;;;;;;4938965;28;20599;-85
2022/09/08 10:27:22;;;;;;;7.25;1.58;;;21.30;99.90;;;;;;4939680;28;19954;-87
2022/09/08 10:30:19;;;;;;;8.02;1.70;;;21.20;99.90;;;;;;4968150;28;20019;-86
2022/09/08 10:33:26;;;;;;;3.90;1.23;;;21.50;99.90;;;;;;4950276;28;20535;-87
2022/09/08 10:35:56;;;;;;;8.20;1.50;;;21.70;99.90;;;;;;4951865;28;20087;-88
2022/09/08 10:38:37;;;;;;;6.45;1.65;;;21.60;99.90;;;;;;4947152;28;20035;-84
2022/09/08 10:41:22;;;;;;;10.00;1.75;;;21.90;99.90;;;;;;4952505;28;20035;-84
2022/09/08 10:44:23;;;;;;;6.60;1.50;;;22.30;99.90;;;;;;4953922;28;20035;-86
2022/09/08 10:47:09;;;;;;;6.05;1.50;;;22.80;99.90;;;;;;4941925;28;21147;-87
2022/09/08 10:50:12;;;;;;;5.85;1.48;;;22.90;99.90;;;;;;4951855;28;20477;-83
2022/09/08 10:53:01;;;;;;;5.80;1.42;;;23.00;99.90;;;;;;4950882;28;20035;-84
2022/09/08 10:55:57;;;;;;;7.90;1.90;;;22.60;99.90;;;;;;4949054;28;20074;-85
2022/09/08 10:59:00;;;;;;;4.97;1.27;;;21.50;99.90;;;;;;4950993;28;20095;-88
2022/09/08 11:01:50;;;;;;;6.45;1.90;;;21.40;99.90;;;;;;4948870;28;20039;-84
2022/09/08 11:04:34;;;;;;;7.65;2.17;;;21.10;99.90;;;;;;4950097;28;20099;-88
2022/09/08 11:07:27;;;;;;;10.18;1.77;;;21.50;99.90;;;;;;4945756;28;20035;-85
2022/09/08 11:10:06;;;;;;;8.07;1.63;;;21.70;99.90;;;;;;4945809;28;20085;-86
2022/09/08 11:12:50;;;;;;;7.32;1.63;;;22.30;99.90;;;;;;4945169;28;20452;-83
2022/09/08 11:15:51;;;;;;;5.95;1.20;;;22.40;99.90;;;;;;4935479;28;20804;-83
2022/09/08 11:18:36;;;;;;;5.43;1.40;;;21.90;99.90;;;;;;4857687;28;20038;-83
2022/09/08 11:21:21;;;;;;;6.50;1.45;;;21.90;99.90;;;;;;4941049;28;20077;-83
2022/09/08 11:24:04;;;;;;;8.27;1.45;;;22.30;99.90;;;;;;4948258;28;20092;-83
2022/09/08 11:27:33;;;;;;;4.70;1.42;;;23.00;99.90;;;;;;4949451;28;20035;-84
2022/09/08 11:30:20;;;;;;;10.00;1.90;;;23.60;99.90;;;;;;4888557;29;20659;-83
2022/09/08 11:33:04;;;;;;;6.78;1.48;;;23.20;99.90;;;;;;4940591;28;20102;-82
2022/09/08 11:35:42;;;;;;;6.72;1.20;;;23.50;99.90;;;;;;4941724;28;20417;-82
2022/09/08 11:38:39;;;;;;;5.88;1.40;;;23.90;99.90;;;;;;4941612;28;20189;-82
2022/09/08 11:41:27;;;;;;;5.65;1.27;;;23.20;99.90;;;;;;4945978;28;20031;-83
2022/09/08 11:44:24;;;;;;;6.75;1.73;;;22.20;99.90;;;;;;4940300;28;20063;-83
2022/09/08 11:47:02;;;;;;;5.35;1.25;;;21.80;99.90;;;;;;4937273;28;20503;-82
2022/09/08 11:50:06;;;;;;;5.78;1.33;;;21.50;99.90;;;;;;4942889;28;20023;-82
2022/09/08 11:52:37;;;;;;;5.43;1.30;;;20.90;99.90;;;;;;4941163;28;20035;-84
2022/09/08 11:55:41;;;;;;;8.63;1.60;;;20.50;99.90;;;;;;4940727;28;20031;-83
2022/09/08 11:58:36;;;;;;;6.80;1.10;;;20.50;99.90;;;;;;4943663;28;20042;-90
2022/09/08 12:01:01;;;;;;;7.82;1.90;;;20.50;99.90;;;;;;4945871;29;20031;-86
2022/09/08 12:03:56;;;;;;;8.80;1.73;;;20.70;99.90;;;;;;4946005;29;20031;-83
2022/09/08 12:06:45;;;;;;;9.20;1.63;;;20.70;99.90;;;;;;4967955;28;20043;-88
2022/09/08 12:09:46;;;;;;;8.27;1.80;;;20.30;99.90;;;;;;4949822;28;20047;-90
2022/09/08 12:12:32;;;;;;;10.15;1.90;;;20.10;99.90;;;;;;4961358;28;20377;-88
2022/09/08 12:15:20;;;;;;;7.10;1.95;;;20.20;99.90;;;;;;4940960;28;20291;-84
2022/09/08 12:17:46;;;;;;;6.28;2.05;;;20.00;99.90;;;;;;4944713;28;20035;-89
2022/09/08 12:20:39;;;;;;;7.35;1.95;;;20.40;99.90;;;;;;4937105;28;20054;-84
2022/09/08 12:23:23;;;;;;;8.68;1.98;;;20.70;99.90;;;;;;4938046;28;20039;-84
2022/09/08 12:26:11;;;;;;;6.50;1.80;;;20.60;99.90;;;;;;4956063;28;20110;-84
2022/09/08 12:28:56;;;;;;;6.00;2.05;;;20.50;99.90;;;;;;4937416;28;20019;-83
2022/09/08 12:31:59;;;;;;;6.55;2.00;;;20.30;99.90;;;;;;4939654;28;20050;-83
2022/09/08 12:35:04;;;;;;;11.50;2.17;;;20.20;99.90;;;;;;4950914;28;20027;-83
2022/09/08 12:37:46;;;;;;;10.93;2.15;;;19.90;99.90;;;;;;4941314;28;20034;-83
2022/09/08 12:40:44;;;;;;;10.60;2.00;;;19.80;99.90;;;;;;4942435;28;20035;-83
2022/09/08 12:43:25;;;;;;;8.27;1.42;;;20.00;99.90;;;;;;4934035;28;20042;-82
2022/09/08 12:46:16;;;;;;;9.07;1.70;;;20.20;99.90;;;;;;4943125;28;20039;-83
2022/09/08 12:48:53;;;;;;;5.72;1.60;;;20.10;99.90;;;;;;4937786;28;20597;-83
2022/09/08 12:51:38;;;;;;;6.72;1.73;;;20.10;99.90;;;;;;4928906;28;20026;-83
2022/09/08 12:54:23;;;;;;;5.45;1.63;;;20.10;99.90;;;;;;4942325;28;20279;-83
2022/09/08 12:57:16;;;;;;;4.25;1.15;;;20.40;99.90;;;;;;4941188;28;20487;-83
2022/09/08 13:00:31;;;;;;;5.82;1.50;;;21.20;99.90;;;;;;4938780;28;20429;-84
2022/09/08 13:03:22;;;;;;;4.32;1.30;;;22.10;99.90;;;;;;4915378;28;20047;-87
2022/09/08 13:06:13;;;;;;;7.05;1.33;;;23.10;99.90;;;;;;4949843;28;20118;-86
2022/09/08 13:08:51;;;;;;;4.38;1.13;;;23.10;99.90;;;;;;4945601;28;20078;-85
2022/09/08 13:11:41;;;;;;;8.43;1.77;;;22.60;99.90;;;;;;4945056;28;20099;-88
2022/09/08 13:14:12;;;;;;;2.88;1.10;;;21.80;99.90;;;;;;4943449;28;20043;-86
2022/09/08 13:16:56;;;;;;;7.15;1.50;;;21.40;99.90;;;;;;4964169;28;20102;-84
2022/09/08 13:19:30;;;;;;;8.63;1.70;;;21.20;99.90;;;;;;4931094;28;20042;-84
2022/09/08 13:22:30;;;;;;;7.85;1.17;;;21.70;99.90;;;;;;4943557;28;20031;-84
2022/09/08 13:25:01;;;;;;;7.97;1.58;;;22.00;99.90;;;;;;4952340;28;20094;-86
2022/09/08 13:27:37;;;;;;;6.40;1.20;;;23.00;99.90;;;;;;4948022;28;20031;-85
2022/09/08 13:30:14;;;;;;;8.15;1.65;;;23.40;99.90;;;;;;4947069;28;20114;-85
2022/09/08 13:33:06;;;;;;;6.60;1.55;;;23.60;99.90;;;;;;4947313;28;20171;-83
2022/09/08 13:35:53;;;;;;;4.87;1.50;;;22.90;99.90;;;;;;4944424;28;20496;-86